sensor_id;sensor_type;location;lat;lon;timestamp;temperature;humidity
40758;DHT22;26462;47.384;19.218;2022-11-15T00:01:44;6.00;99.90
40758;DHT22;26462;47.384;19.218;2022-11-15T00:04:30;5.90;99.90
40758;DHT22;26462;47.384;19.218;2022-11-15T00:07:16;5.90;99.90
40758;DHT22;26462;47.384;19.218;2022-11-15T00:10:22;6.00;99.90
40758;DHT22;26462;47.384;19.218;2022-11-15T00:13:10;6.00;99.90
40758;DHT22;26462;47.384;19.218;2022-11-15T00:15:58;6.00;99.90
40758;DHT22;26462;47.384;19.218;2022-11-15T00:18:43;5.90;99.90
40758;DHT22;26462;47.384;19.218;2022-11-15T00:21:35;5.90;99.90
40758;DHT22;26462;47.384;19.218;2022-11-15T00:24:21;5.90;99.90
40758;DHT22;26462;47.384;19.218;2022-11-15T00:27:06;5.90;99.90
40758;DHT22;26462;47.384;19.218;2022-11-15T00:29:55;5.90;99.90
40758;DHT22;26462;47.384;19.218;2022-11-15T00:32:41;5.90;99.90
40758;DHT22;26462;47.384;19.218;2022-11-15T00:35:27;5.90;99.90
40758;DHT22;26462;47.384;19.218;2022-11-15T00:38:13;5.90;99.90
40758;DHT22;26462;47.384;19.218;2022-11-15T00:41:00;5.90;99.90
40758;DHT22;26462;47.384;19.218;2022-11-15T00:43:53;5.90;99.90
40758;DHT22;26462;47.384;19.218;2022-11-15T00:46:39;5.90;99.90
40758;DHT22;26462;47.384;19.218;2022-11-15T00:49:25;5.80;99.90
40758;DHT22;26462;47.384;19.218;2022-11-15T00:52:11;5.50;99.90
40758;DHT22;26462;47.384;19.218;2022-11-15T00:54:57;5.70;99.90
40758;DHT22;26462;47.384;19.218;2022-11-15T00:57:43;5.80;99.90
40758;DHT22;26462;47.384;19.218;2022-11-15T01:00:29;5.80;99.90
40758;DHT22;26462;47.384;19.218;2022-11-15T01:03:15;5.90;99.90
40758;DHT22;26462;47.384;19.218;2022-11-15T01:06:00;5.90;99.90
40758;DHT22;26462;47.384;19.218;2022-11-15T01:08:46;5.90;99.90
40758;DHT22;26462;47.384;19.218;2022-11-15T01:11:31;5.80;99.90
40758;DHT22;26462;47.384;19.218;2022-11-15T01:14:17;5.80;99.90
40758;DHT22;26462;47.384;19.218;2022-11-15T01:17:09;5.70;99.90
40758;DHT22;26462;47.384;19.218;2022-11-15T01:19:54;5.70;99.90
40758;DHT22;26462;47.384;19.218;2022-11-15T01:22:40;5.80;99.90
40758;DHT22;26462;47.384;19.218;2022-11-15T01:25:25;5.80;99.90
40758;DHT22;26462;47.384;19.218;2022-11-15T01:28:11;5.80;99.90
40758;DHT22;26462;47.384;19.218;2022-11-15T01:30:58;5.80;99.90
40758;DHT22;26462;47.384;19.218;2022-11-15T01:33:45;5.80;99.90
40758;DHT22;26462;47.384;19.218;2022-11-15T01:36:31;5.80;99.90
40758;DHT22;26462;47.384;19.218;2022-11-15T01:39:17;5.80;99.90
40758;DHT22;26462;47.384;19.218;2022-11-15T01:42:02;5.70;99.90
40758;DHT22;26462;47.384;19.218;2022-11-15T01:44:52;5.80;99.90
40758;DHT22;26462;47.384;19.218;2022-11-15T01:47:43;5.80;99.90
40758;DHT22;26462;47.384;19.218;2022-11-15T01:50:32;5.80;99.90
40758;DHT22;26462;47.384;19.218;2022-11-15T01:53:19;5.80;99.90
40758;DHT22;26462;47.384;19.218;2022-11-15T01:56:15;5.80;99.90
40758;DHT22;26462;47.384;19.218;2022-11-15T01:59:04;5.80;99.90
40758;DHT22;26462;47.384;19.218;2022-11-15T02:01:51;5.80;99.90
40758;DHT22;26462;47.384;19.218;2022-11-15T02:04:41;5.80;99.90
40758;DHT22;26462;47.384;19.218;2022-11-15T02:07:28;5.80;99.90
40758;DHT22;26462;47.384;19.218;2022-11-15T02:10:20;5.90;99.90
40758;DHT22;26462;47.384;19.218;2022-11-15T02:13:06;5.90;99.90
40758;DHT22;26462;47.384;19.218;2022-11-15T02:22:33;5.90;99.90
40758;DHT22;26462;47.384;19.218;2022-11-15T02:25:37;5.80;99.90
40758;DHT22;26462;47.384;19.218;2022-11-15T02:34:32;5.90;99.90
40758;DHT22;26462;47.384;19.218;2022-11-15T02:37:41;5.90;99.90
40758;DHT22;26462;47.384;19.218;2022-11-15T02:40:47;5.90;99.90
40758;DHT22;26462;47.384;19.218;2022-11-15T02:46:49;5.90;99.90
40758;DHT22;26462;47.384;19.218;2022-11-15T02:49:59;5.90;99.90
40758;DHT22;26462;47.384;19.218;2022-11-15T02:52:46;5.90;99.90
40758;DHT22;26462;47.384;19.218;2022-11-15T03:01:38;5.90;99.90
40758;DHT22;26462;47.384;19.218;2022-11-15T03:08:39;5.90;99.90
40758;DHT22;26462;47.384;19.218;2022-11-15T03:11:46;5.90;99.90
40758;DHT22;26462;47.384;19.218;2022-11-15T03:14:36;5.90;99.90
40758;DHT22;26462;47.384;19.218;2022-11-15T03:17:40;5.90;99.90
40758;DHT22;26462;47.384;19.218;2022-11-15T03:20:29;5.90;99.90
40758;DHT22;26462;47.384;19.218;2022-11-15T03:23:17;5.90;99.90
40758;DHT22;26462;47.384;19.218;2022-11-15T03:26:06;5.90;99.90
40758;DHT22;26462;47.384;19.218;2022-11-15T03:28:56;5.90;99.90
40758;DHT22;26462;47.384;19.218;2022-11-15T03:31:47;5.90;99.90
40758;DHT22;26462;47.384;19.218;2022-11-15T03:35:04;5.90;99.90
40758;DHT22;26462;47.384;19.218;2022-11-15T03:37:57;5.80;99.90
40758;DHT22;26462;47.384;19.218;2022-11-15T03:46:55;5.80;99.90
40758;DHT22;26462;47.384;19.218;2022-11-15T03:49:44;5.80;99.90
40758;DHT22;26462;47.384;19.218;2022-11-15T03:52:33;5.80;99.90
40758;DHT22;26462;47.384;19.218;2022-11-15T03:55:20;5.80;99.90
40758;DHT22;26462;47.384;19.218;2022-11-15T03:58:06;5.80;99.90
40758;DHT22;26462;47.384;19.218;2022-11-15T04:00:51;5.80;99.90
40758;DHT22;26462;47.384;19.218;2022-11-15T04:03:37;5.80;99.90
40758;DHT22;26462;47.384;19.218;2022-11-15T04:06:23;5.70;99.90
40758;DHT22;26462;47.384;19.218;2022-11-15T04:09:08;5.70;99.90
40758;DHT22;26462;47.384;19.218;2022-11-15T04:11:54;5.70;99.90
40758;DHT22;26462;47.384;19.218;2022-11-15T04:14:39;5.70;99.90
40758;DHT22;26462;47.384;19.218;2022-11-15T04:20:31;5.80;99.90
40758;DHT22;26462;47.384;19.218;2022-11-15T04:23:35;5.80;99.90
40758;DHT22;26462;47.384;19.218;2022-11-15T04:26:39;5.80;99.90
40758;DHT22;26462;47.384;19.218;2022-11-15T04:29:25;5.80;99.90
40758;DHT22;26462;47.384;19.218;2022-11-15T04:32:19;5.90;99.90
40758;DHT22;26462;47.384;19.218;2022-11-15T04:35:05;5.90;99.90
40758;DHT22;26462;47.384;19.218;2022-11-15T04:37:51;5.90;99.90
40758;DHT22;26462;47.384;19.218;2022-11-15T04:40:37;5.90;99.90
40758;DHT22;26462;47.384;19.218;2022-11-15T04:43:22;5.90;99.90
40758;DHT22;26462;47.384;19.218;2022-11-15T04:46:08;5.90;99.90
40758;DHT22;26462;47.384;19.218;2022-11-15T04:48:54;5.90;99.90
40758;DHT22;26462;47.384;19.218;2022-11-15T04:51:44;6.00;99.90
40758;DHT22;26462;47.384;19.218;2022-11-15T04:54:29;5.90;99.90
40758;DHT22;26462;47.384;19.218;2022-11-15T04:57:15;5.90;99.90
40758;DHT22;26462;47.384;19.218;2022-11-15T05:00:05;6.00;99.90
40758;DHT22;26462;47.384;19.218;2022-11-15T05:02:52;5.90;99.90
40758;DHT22;26462;47.384;19.218;2022-11-15T05:05:57;5.90;99.90
40758;DHT22;26462;47.384;19.218;2022-11-15T05:08:42;6.00;99.90
40758;DHT22;26462;47.384;19.218;2022-11-15T05:11:28;6.00;99.90
40758;DHT22;26462;47.384;19.218;2022-11-15T05:14:14;6.00;99.90
40758;DHT22;26462;47.384;19.218;2022-11-15T05:17:00;6.00;99.90
40758;DHT22;26462;47.384;19.218;2022-11-15T05:19:45;6.00;99.90
40758;DHT22;26462;47.384;19.218;2022-11-15T05:22:31;6.00;99.90
40758;DHT22;26462;47.384;19.218;2022-11-15T05:25:17;6.00;99.90
40758;DHT22;26462;47.384;19.218;2022-11-15T05:28:03;6.00;99.90
40758;DHT22;26462;47.384;19.218;2022-11-15T05:30:49;6.10;99.90
40758;DHT22;26462;47.384;19.218;2022-11-15T05:33:39;6.10;99.90
40758;DHT22;26462;47.384;19.218;2022-11-15T05:36:38;6.10;99.90
40758;DHT22;26462;47.384;19.218;2022-11-15T05:39:26;6.10;99.90
40758;DHT22;26462;47.384;19.218;2022-11-15T05:42:14;6.10;99.90
40758;DHT22;26462;47.384;19.218;2022-11-15T05:45:02;6.10;99.90
40758;DHT22;26462;47.384;19.218;2022-11-15T05:47:50;6.10;99.90
40758;DHT22;26462;47.384;19.218;2022-11-15T05:50:39;6.10;99.90
40758;DHT22;26462;47.384;19.218;2022-11-15T05:53:26;6.10;99.90
40758;DHT22;26462;47.384;19.218;2022-11-15T05:56:12;6.10;99.90
40758;DHT22;26462;47.384;19.218;2022-11-15T05:58:59;6.10;99.90
40758;DHT22;26462;47.384;19.218;2022-11-15T06:01:45;6.10;99.90
40758;DHT22;26462;47.384;19.218;2022-11-15T06:04:30;6.10;99.90
40758;DHT22;26462;47.384;19.218;2022-11-15T06:07:16;6.10;99.90
40758;DHT22;26462;47.384;19.218;2022-11-15T06:10:02;6.10;99.90
40758;DHT22;26462;47.384;19.218;2022-11-15T06:15:44;6.20;99.90
40758;DHT22;26462;47.384;19.218;2022-11-15T06:18:32;6.20;99.90
40758;DHT22;26462;47.384;19.218;2022-11-15T06:21:19;6.30;99.90
40758;DHT22;26462;47.384;19.218;2022-11-15T06:24:05;6.30;99.90
40758;DHT22;26462;47.384;19.218;2022-11-15T06:26:51;6.30;99.90
40758;DHT22;26462;47.384;19.218;2022-11-15T06:29:36;6.30;99.90
40758;DHT22;26462;47.384;19.218;2022-11-15T06:32:22;6.30;99.90
40758;DHT22;26462;47.384;19.218;2022-11-15T06:35:07;6.30;99.90
40758;DHT22;26462;47.384;19.218;2022-11-15T06:37:53;6.30;99.90
40758;DHT22;26462;47.384;19.218;2022-11-15T06:40:39;6.30;99.90
40758;DHT22;26462;47.384;19.218;2022-11-15T06:43:24;6.40;99.90
40758;DHT22;26462;47.384;19.218;2022-11-15T06:46:10;6.40;99.90
40758;DHT22;26462;47.384;19.218;2022-11-15T06:48:56;6.30;99.90
40758;DHT22;26462;47.384;19.218;2022-11-15T06:51:41;6.40;99.90
40758;DHT22;26462;47.384;19.218;2022-11-15T06:54:27;6.40;99.90
40758;DHT22;26462;47.384;19.218;2022-11-15T06:57:13;6.40;99.90
40758;DHT22;26462;47.384;19.218;2022-11-15T06:59:58;6.50;99.90
40758;DHT22;26462;47.384;19.218;2022-11-15T07:02:44;6.50;99.90
40758;DHT22;26462;47.384;19.218;2022-11-15T07:05:30;6.50;99.90
40758;DHT22;26462;47.384;19.218;2022-11-15T07:08:15;6.60;99.90
40758;DHT22;26462;47.384;19.218;2022-11-15T07:11:03;6.50;99.90
40758;DHT22;26462;47.384;19.218;2022-11-15T07:13:49;6.60;99.90
40758;DHT22;26462;47.384;19.218;2022-11-15T07:16:36;6.60;99.90
40758;DHT22;26462;47.384;19.218;2022-11-15T07:19:21;6.60;99.90
40758;DHT22;26462;47.384;19.218;2022-11-15T07:22:07;6.70;99.90
40758;DHT22;26462;47.384;19.218;2022-11-15T07:24:52;6.70;99.90
40758;DHT22;26462;47.384;19.218;2022-11-15T07:27:39;6.70;99.90
40758;DHT22;26462;47.384;19.218;2022-11-15T07:30:26;6.70;99.90
40758;DHT22;26462;47.384;19.218;2022-11-15T07:33:11;6.70;99.90
40758;DHT22;26462;47.384;19.218;2022-11-15T07:36:01;6.80;99.90
40758;DHT22;26462;47.384;19.218;2022-11-15T07:38:47;6.80;99.90
40758;DHT22;26462;47.384;19.218;2022-11-15T07:41:32;6.80;99.90
40758;DHT22;26462;47.384;19.218;2022-11-15T07:44:18;6.90;99.90
40758;DHT22;26462;47.384;19.218;2022-11-15T07:47:03;6.90;99.90
40758;DHT22;26462;47.384;19.218;2022-11-15T07:49:49;6.90;99.90
40758;DHT22;26462;47.384;19.218;2022-11-15T07:52:35;6.80;99.90
40758;DHT22;26462;47.384;19.218;2022-11-15T07:55:20;6.80;99.90
40758;DHT22;26462;47.384;19.218;2022-11-15T07:58:09;6.80;99.90
40758;DHT22;26462;47.384;19.218;2022-11-15T08:00:54;6.80;99.90
40758;DHT22;26462;47.384;19.218;2022-11-15T08:03:40;6.80;99.90
40758;DHT22;26462;47.384;19.218;2022-11-15T08:06:26;6.80;99.90
40758;DHT22;26462;47.384;19.218;2022-11-15T08:09:11;6.80;99.90
40758;DHT22;26462;47.384;19.218;2022-11-15T08:11:57;6.90;99.90
40758;DHT22;26462;47.384;19.218;2022-11-15T08:14:43;6.90;99.90
40758;DHT22;26462;47.384;19.218;2022-11-15T08:17:28;6.80;99.90
40758;DHT22;26462;47.384;19.218;2022-11-15T08:20:17;6.80;99.90
40758;DHT22;26462;47.384;19.218;2022-11-15T08:23:05;6.90;99.90
40758;DHT22;26462;47.384;19.218;2022-11-15T08:25:50;6.90;99.90
40758;DHT22;26462;47.384;19.218;2022-11-15T08:28:36;6.90;99.90
40758;DHT22;26462;47.384;19.218;2022-11-15T08:31:22;6.90;99.90
40758;DHT22;26462;47.384;19.218;2022-11-15T08:34:07;6.90;99.90
40758;DHT22;26462;47.384;19.218;2022-11-15T08:36:53;6.90;99.90
40758;DHT22;26462;47.384;19.218;2022-11-15T08:39:39;6.90;99.90
40758;DHT22;26462;47.384;19.218;2022-11-15T08:42:24;7.00;99.90
40758;DHT22;26462;47.384;19.218;2022-11-15T08:45:13;7.00;99.90
40758;DHT22;26462;47.384;19.218;2022-11-15T08:48:01;7.00;99.90
40758;DHT22;26462;47.384;19.218;2022-11-15T08:50:47;7.00;99.90
40758;DHT22;26462;47.384;19.218;2022-11-15T08:53:33;7.10;99.90
40758;DHT22;26462;47.384;19.218;2022-11-15T08:56:19;7.10;99.90
40758;DHT22;26462;47.384;19.218;2022-11-15T08:59:04;7.20;99.90
40758;DHT22;26462;47.384;19.218;2022-11-15T09:01:50;7.30;99.90
40758;DHT22;26462;47.384;19.218;2022-11-15T09:04:36;7.40;99.90
40758;DHT22;26462;47.384;19.218;2022-11-15T09:07:22;7.40;99.90
40758;DHT22;26462;47.384;19.218;2022-11-15T09:10:08;7.40;99.90
40758;DHT22;26462;47.384;19.218;2022-11-15T09:12:53;7.40;99.90
40758;DHT22;26462;47.384;19.218;2022-11-15T09:15:40;7.40;99.90
40758;DHT22;26462;47.384;19.218;2022-11-15T09:18:25;7.40;99.90
40758;DHT22;26462;47.384;19.218;2022-11-15T09:21:13;7.40;99.90
40758;DHT22;26462;47.384;19.218;2022-11-15T09:23:59;7.30;99.90
40758;DHT22;26462;47.384;19.218;2022-11-15T09:26:44;7.40;99.90
40758;DHT22;26462;47.384;19.218;2022-11-15T09:29:30;7.40;99.90
40758;DHT22;26462;47.384;19.218;2022-11-15T09:32:16;7.40;99.90
40758;DHT22;26462;47.384;19.218;2022-11-15T09:35:01;7.30;99.90
40758;DHT22;26462;47.384;19.218;2022-11-15T09:37:48;7.40;99.90
40758;DHT22;26462;47.384;19.218;2022-11-15T09:40:40;7.30;99.90
40758;DHT22;26462;47.384;19.218;2022-11-15T09:46:40;7.40;99.90
40758;DHT22;26462;47.384;19.218;2022-11-15T09:49:29;7.40;99.90
40758;DHT22;26462;47.384;19.218;2022-11-15T09:52:10;7.40;99.90
40758;DHT22;26462;47.384;19.218;2022-11-15T09:54:39;7.40;99.90
40758;DHT22;26462;47.384;19.218;2022-11-15T10:00:16;7.40;99.90
40758;DHT22;26462;47.384;19.218;2022-11-15T10:03:42;7.40;99.90
40758;DHT22;26462;47.384;19.218;2022-11-15T10:06:04;7.40;99.90
40758;DHT22;26462;47.384;19.218;2022-11-15T10:11:22;7.50;99.90
40758;DHT22;26462;47.384;19.218;2022-11-15T10:14:15;7.50;99.90
40758;DHT22;26462;47.384;19.218;2022-11-15T10:16:55;7.50;99.90
40758;DHT22;26462;47.384;19.218;2022-11-15T10:25:28;7.50;99.90
40758;DHT22;26462;47.384;19.218;2022-11-15T10:27:58;7.50;99.90
40758;DHT22;26462;47.384;19.218;2022-11-15T10:30:45;7.50;99.90
40758;DHT22;26462;47.384;19.218;2022-11-15T10:33:30;7.50;99.90
40758;DHT22;26462;47.384;19.218;2022-11-15T10:36:18;7.10;99.90
40758;DHT22;26462;47.384;19.218;2022-11-15T10:41:29;7.50;99.90
40758;DHT22;26462;47.384;19.218;2022-11-15T10:46:45;7.40;99.90
40758;DHT22;26462;47.384;19.218;2022-11-15T10:49:20;7.40;99.90
40758;DHT22;26462;47.384;19.218;2022-11-15T10:51:49;7.50;99.90
40758;DHT22;26462;47.384;19.218;2022-11-15T10:57:15;7.50;99.90
40758;DHT22;26462;47.384;19.218;2022-11-15T10:59:56;7.50;99.90
40758;DHT22;26462;47.384;19.218;2022-11-15T11:02:28;7.50;99.90
40758;DHT22;26462;47.384;19.218;2022-11-15T11:04:57;7.60;99.90
40758;DHT22;26462;47.384;19.218;2022-11-15T11:07:27;7.70;99.90
40758;DHT22;26462;47.384;19.218;2022-11-15T11:10:05;7.70;99.90
40758;DHT22;26462;47.384;19.218;2022-11-15T11:13:24;7.70;99.90
40758;DHT22;26462;47.384;19.218;2022-11-15T11:19:03;7.70;99.90
40758;DHT22;26462;47.384;19.218;2022-11-15T11:22:03;7.70;99.90
40758;DHT22;26462;47.384;19.218;2022-11-15T11:44:23;7.70;99.90
40758;DHT22;26462;47.384;19.218;2022-11-15T11:46:56;7.60;99.90
40758;DHT22;26462;47.384;19.218;2022-11-15T11:50:00;7.60;99.90
40758;DHT22;26462;47.384;19.218;2022-11-15T11:52:38;7.70;99.90
40758;DHT22;26462;47.384;19.218;2022-11-15T11:55:28;7.60;99.90
40758;DHT22;26462;47.384;19.218;2022-11-15T12:01:22;7.70;99.90
40758;DHT22;26462;47.384;19.218;2022-11-15T12:03:59;7.70;99.90
40758;DHT22;26462;47.384;19.218;2022-11-15T12:06:39;7.70;99.90
40758;DHT22;26462;47.384;19.218;2022-11-15T12:09:30;7.70;99.90
40758;DHT22;26462;47.384;19.218;2022-11-15T12:12:09;7.70;99.90
40758;DHT22;26462;47.384;19.218;2022-11-15T12:17:10;7.70;99.90
40758;DHT22;26462;47.384;19.218;2022-11-15T12:19:41;7.70;99.90
40758;DHT22;26462;47.384;19.218;2022-11-15T12:25:22;7.60;99.90
40758;DHT22;26462;47.384;19.218;2022-11-15T12:28:08;7.70;99.90
40758;DHT22;26462;47.384;19.218;2022-11-15T12:33:57;7.70;99.90
40758;DHT22;26462;47.384;19.218;2022-11-15T12:36:41;7.60;99.90
40758;DHT22;26462;47.384;19.218;2022-11-15T12:39:11;7.70;99.90
40758;DHT22;26462;47.384;19.218;2022-11-15T12:52:06;7.70;99.90
40758;DHT22;26462;47.384;19.218;2022-11-15T12:59:56;7.70;99.90
40758;DHT22;26462;47.384;19.218;2022-11-15T13:17:50;7.90;99.90
40758;DHT22;26462;47.384;19.218;2022-11-15T13:20:31;7.90;99.90
40758;DHT22;26462;47.384;19.218;2022-11-15T13:35:54;7.80;99.90
40758;DHT22;26462;47.384;19.218;2022-11-15T13:40:51;7.80;99.90
40758;DHT22;26462;47.384;19.218;2022-11-15T13:46:12;7.80;99.90
40758;DHT22;26462;47.384;19.218;2022-11-15T13:48:45;7.80;99.90
40758;DHT22;26462;47.384;19.218;2022-11-15T13:54:19;7.80;99.90
40758;DHT22;26462;47.384;19.218;2022-11-15T13:56:47;7.70;99.90
40758;DHT22;26462;47.384;19.218;2022-11-15T13:59:25;7.70;99.90
40758;DHT22;26462;47.384;19.218;2022-11-15T14:01:55;7.80;99.90
40758;DHT22;26462;47.384;19.218;2022-11-15T14:04:25;7.70;99.90
40758;DHT22;26462;47.384;19.218;2022-11-15T14:06:55;7.70;99.90
40758;DHT22;26462;47.384;19.218;2022-11-15T14:11:54;7.70;99.90
40758;DHT22;26462;47.384;19.218;2022-11-15T14:14:24;7.70;99.90
40758;DHT22;26462;47.384;19.218;2022-11-15T14:16:57;7.70;99.90
40758;DHT22;26462;47.384;19.218;2022-11-15T14:22:14;7.70;99.90
40758;DHT22;26462;47.384;19.218;2022-11-15T14:24:44;7.70;99.90
40758;DHT22;26462;47.384;19.218;2022-11-15T14:27:26;7.70;99.90
40758;DHT22;26462;47.384;19.218;2022-11-15T14:29:54;7.70;99.90
40758;DHT22;26462;47.384;19.218;2022-11-15T14:34:59;7.70;99.90
40758;DHT22;26462;47.384;19.218;2022-11-15T14:37:32;7.70;99.90
40758;DHT22;26462;47.384;19.218;2022-11-15T14:40:04;7.70;99.90
40758;DHT22;26462;47.384;19.218;2022-11-15T14:42:32;7.70;99.90
40758;DHT22;26462;47.384;19.218;2022-11-15T14:44:59;7.70;99.90
40758;DHT22;26462;47.384;19.218;2022-11-15T14:47:26;7.70;99.90
40758;DHT22;26462;47.384;19.218;2022-11-15T14:49:53;7.70;99.90
40758;DHT22;26462;47.384;19.218;2022-11-15T14:52:24;7.70;99.90
40758;DHT22;26462;47.384;19.218;2022-11-15T14:54:58;7.60;99.90
40758;DHT22;26462;47.384;19.218;2022-11-15T14:57:26;7.60;99.90
40758;DHT22;26462;47.384;19.218;2022-11-15T14:59:56;7.60;99.90
40758;DHT22;26462;47.384;19.218;2022-11-15T15:02:39;7.60;99.90
40758;DHT22;26462;47.384;19.218;2022-11-15T15:05:22;7.50;99.90
40758;DHT22;26462;47.384;19.218;2022-11-15T15:07:51;7.50;99.90
40758;DHT22;26462;47.384;19.218;2022-11-15T15:10:20;7.60;99.90
40758;DHT22;26462;47.384;19.218;2022-11-15T15:13:09;7.60;99.90
40758;DHT22;26462;47.384;19.218;2022-11-15T15:15:39;7.60;99.90
40758;DHT22;26462;47.384;19.218;2022-11-15T15:18:07;7.60;99.90
40758;DHT22;26462;47.384;19.218;2022-11-15T15:20:37;7.60;99.90
40758;DHT22;26462;47.384;19.218;2022-11-15T15:23:18;7.60;99.90
40758;DHT22;26462;47.384;19.218;2022-11-15T15:25:46;7.60;99.90
40758;DHT22;26462;47.384;19.218;2022-11-15T15:28:16;7.60;99.90
40758;DHT22;26462;47.384;19.218;2022-11-15T15:30:43;7.60;99.90
40758;DHT22;26462;47.384;19.218;2022-11-15T15:33:10;7.60;99.90
40758;DHT22;26462;47.384;19.218;2022-11-15T15:35:37;7.60;99.90
40758;DHT22;26462;47.384;19.218;2022-11-15T15:38:04;7.60;99.90
40758;DHT22;26462;47.384;19.218;2022-11-15T15:40:32;7.70;99.90
40758;DHT22;26462;47.384;19.218;2022-11-15T15:43:01;7.60;99.90
40758;DHT22;26462;47.384;19.218;2022-11-15T15:45:28;7.60;99.90
40758;DHT22;26462;47.384;19.218;2022-11-15T15:47:56;7.60;99.90
40758;DHT22;26462;47.384;19.218;2022-11-15T15:50:26;7.60;99.90
40758;DHT22;26462;47.384;19.218;2022-11-15T15:52:57;7.60;99.90
40758;DHT22;26462;47.384;19.218;2022-11-15T15:55:25;7.60;99.90
40758;DHT22;26462;47.384;19.218;2022-11-15T15:57:52;7.50;99.90
40758;DHT22;26462;47.384;19.218;2022-11-15T16:00:21;7.50;99.90
40758;DHT22;26462;47.384;19.218;2022-11-15T16:02:50;7.60;99.90
40758;DHT22;26462;47.384;19.218;2022-11-15T16:05:17;7.60;99.90
40758;DHT22;26462;47.384;19.218;2022-11-15T16:07:45;7.60;99.90
40758;DHT22;26462;47.384;19.218;2022-11-15T16:10:28;7.60;99.90
40758;DHT22;26462;47.384;19.218;2022-11-15T16:12:57;7.60;99.90
40758;DHT22;26462;47.384;19.218;2022-11-15T16:15:26;7.60;99.90
40758;DHT22;26462;47.384;19.218;2022-11-15T16:17:55;7.60;99.90
40758;DHT22;26462;47.384;19.218;2022-11-15T16:20:44;7.50;99.90
40758;DHT22;26462;47.384;19.218;2022-11-15T16:23:13;7.50;99.90
40758;DHT22;26462;47.384;19.218;2022-11-15T16:25:47;7.60;99.90
40758;DHT22;26462;47.384;19.218;2022-11-15T16:30:44;7.50;99.90
40758;DHT22;26462;47.384;19.218;2022-11-15T16:33:11;7.50;99.90
40758;DHT22;26462;47.384;19.218;2022-11-15T16:35:39;7.50;99.90
40758;DHT22;26462;47.384;19.218;2022-11-15T16:38:12;7.50;99.90
40758;DHT22;26462;47.384;19.218;2022-11-15T16:40:40;7.50;99.90
40758;DHT22;26462;47.384;19.218;2022-11-15T16:43:08;7.50;99.90
40758;DHT22;26462;47.384;19.218;2022-11-15T16:45:35;7.50;99.90
40758;DHT22;26462;47.384;19.218;2022-11-15T16:48:03;7.50;99.90
40758;DHT22;26462;47.384;19.218;2022-11-15T16:50:32;7.50;99.90
40758;DHT22;26462;47.384;19.218;2022-11-15T16:53:05;7.60;99.90
40758;DHT22;26462;47.384;19.218;2022-11-15T16:55:32;7.50;99.90
40758;DHT22;26462;47.384;19.218;2022-11-15T16:57:59;7.50;99.90
40758;DHT22;26462;47.384;19.218;2022-11-15T17:00:27;7.60;99.90
40758;DHT22;26462;47.384;19.218;2022-11-15T17:02:54;7.60;99.90
40758;DHT22;26462;47.384;19.218;2022-11-15T17:05:23;7.50;99.90
40758;DHT22;26462;47.384;19.218;2022-11-15T17:07:52;7.50;99.90
40758;DHT22;26462;47.384;19.218;2022-11-15T17:10:21;7.50;99.90
40758;DHT22;26462;47.384;19.218;2022-11-15T17:12:50;7.50;99.90
40758;DHT22;26462;47.384;19.218;2022-11-15T17:15:18;7.60;99.90
40758;DHT22;26462;47.384;19.218;2022-11-15T17:17:51;7.50;99.90
40758;DHT22;26462;47.384;19.218;2022-11-15T17:20:20;7.50;99.90
40758;DHT22;26462;47.384;19.218;2022-11-15T17:22:48;7.50;99.90
40758;DHT22;26462;47.384;19.218;2022-11-15T17:25:15;7.60;99.90
40758;DHT22;26462;47.384;19.218;2022-11-15T17:27:42;7.50;99.90
40758;DHT22;26462;47.384;19.218;2022-11-15T17:30:12;7.50;99.90
40758;DHT22;26462;47.384;19.218;2022-11-15T17:32:41;7.50;99.90
40758;DHT22;26462;47.384;19.218;2022-11-15T17:35:11;7.50;99.90
40758;DHT22;26462;47.384;19.218;2022-11-15T17:37:41;7.50;99.90
40758;DHT22;26462;47.384;19.218;2022-11-15T17:40:10;7.50;99.90
40758;DHT22;26462;47.384;19.218;2022-11-15T17:42:39;7.50;99.90
40758;DHT22;26462;47.384;19.218;2022-11-15T17:45:08;7.50;99.90
40758;DHT22;26462;47.384;19.218;2022-11-15T17:47:36;7.50;99.90
40758;DHT22;26462;47.384;19.218;2022-11-15T17:50:04;7.50;99.90
40758;DHT22;26462;47.384;19.218;2022-11-15T17:52:32;7.50;99.90
40758;DHT22;26462;47.384;19.218;2022-11-15T17:55:00;7.50;99.90
40758;DHT22;26462;47.384;19.218;2022-11-15T17:57:27;7.50;99.90
40758;DHT22;26462;47.384;19.218;2022-11-15T17:59:55;7.50;99.90
40758;DHT22;26462;47.384;19.218;2022-11-15T18:02:23;7.50;99.90
40758;DHT22;26462;47.384;19.218;2022-11-15T18:04:50;7.50;99.90
40758;DHT22;26462;47.384;19.218;2022-11-15T18:07:17;7.50;99.90
40758;DHT22;26462;47.384;19.218;2022-11-15T18:09:44;7.50;99.90
40758;DHT22;26462;47.384;19.218;2022-11-15T18:12:11;7.50;99.90
40758;DHT22;26462;47.384;19.218;2022-11-15T18:14:39;7.50;99.90
40758;DHT22;26462;47.384;19.218;2022-11-15T18:17:09;7.50;99.90
40758;DHT22;26462;47.384;19.218;2022-11-15T18:19:36;7.50;99.90
40758;DHT22;26462;47.384;19.218;2022-11-15T18:22:03;7.50;99.90
40758;DHT22;26462;47.384;19.218;2022-11-15T18:24:34;7.50;99.90
40758;DHT22;26462;47.384;19.218;2022-11-15T18:27:05;7.50;99.90
40758;DHT22;26462;47.384;19.218;2022-11-15T18:29:33;7.50;99.90
40758;DHT22;26462;47.384;19.218;2022-11-15T18:32:05;7.50;99.90
40758;DHT22;26462;47.384;19.218;2022-11-15T18:34:38;7.60;99.90
40758;DHT22;26462;47.384;19.218;2022-11-15T18:37:06;7.60;99.90
40758;DHT22;26462;47.384;19.218;2022-11-15T18:39:34;7.50;99.90
40758;DHT22;26462;47.384;19.218;2022-11-15T18:42:01;7.50;99.90
40758;DHT22;26462;47.384;19.218;2022-11-15T18:44:29;7.50;99.90
40758;DHT22;26462;47.384;19.218;2022-11-15T18:46:56;7.50;99.90
40758;DHT22;26462;47.384;19.218;2022-11-15T18:49:24;7.50;99.90
40758;DHT22;26462;47.384;19.218;2022-11-15T18:51:51;7.50;99.90
40758;DHT22;26462;47.384;19.218;2022-11-15T18:54:18;7.60;99.90
40758;DHT22;26462;47.384;19.218;2022-11-15T18:56:46;7.60;99.90
40758;DHT22;26462;47.384;19.218;2022-11-15T18:59:14;7.50;99.90
40758;DHT22;26462;47.384;19.218;2022-11-15T19:01:43;7.50;99.90
40758;DHT22;26462;47.384;19.218;2022-11-15T19:04:16;7.50;99.90
40758;DHT22;26462;47.384;19.218;2022-11-15T19:06:48;7.50;99.90
40758;DHT22;26462;47.384;19.218;2022-11-15T19:09:18;7.60;99.90
40758;DHT22;26462;47.384;19.218;2022-11-15T19:11:47;7.50;99.90
40758;DHT22;26462;47.384;19.218;2022-11-15T19:14:18;7.50;99.90
40758;DHT22;26462;47.384;19.218;2022-11-15T19:16:47;7.50;99.90
40758;DHT22;26462;47.384;19.218;2022-11-15T19:19:21;7.50;99.90
40758;DHT22;26462;47.384;19.218;2022-11-15T19:21:50;7.50;99.90
40758;DHT22;26462;47.384;19.218;2022-11-15T19:24:18;7.60;99.90
40758;DHT22;26462;47.384;19.218;2022-11-15T19:26:45;7.60;99.90
40758;DHT22;26462;47.384;19.218;2022-11-15T19:29:13;7.60;99.90
40758;DHT22;26462;47.384;19.218;2022-11-15T19:31:40;7.60;99.90